Time;durP1;ratioP1;P1;durP2;ratioP2;P2;SDS_P1;SDS_P2;PMS_P1;PMS_P2;Temp;Humidity;BMP_temperature;BMP_pressure;BME280_temperature;BME280_humidity;BME280_pressure;Samples;Min_cycle;Max_cycle;Signal;HPM_P1;HPM_P2
2023/08/14 00:00:46;;;;;;;14.73;10.82;;;;;;;;;;9990494;29;20034;-84
2023/08/14 00:05:47;;;;;;;12.98;10.27;;;;;;;;;;9993873;29;20049;-84
2023/08/14 00:10:48;;;;;;;15.50;11.55;;;;;;;;;;10008638;29;20046;-84
2023/08/14 00:15:49;;;;;;;16.58;12.15;;;;;;;;;;10001161;29;20046;-83
2023/08/14 00:20:50;;;;;;;17.83;13.00;;;;;;;;;;10006185;29;20559;-82
2023/08/14 00:25:51;;;;;;;17.67;11.82;;;;;;;;;;9984248;29;20106;-83
2023/08/14 00:30:52;;;;;;;16.80;12.23;;;;;;;;;;10001964;29;20045;-83
2023/08/14 00:35:53;;;;;;;19.58;11.45;;;;;;;;;;10005787;29;20045;-83
2023/08/14 00:40:54;;;;;;;14.65;11.60;;;;;;;;;;10001998;29;20049;-83
2023/08/14 00:45:56;;;;;;;14.32;11.35;;;;;;;;;;9999477;29;20054;-83
2023/08/14 00:50:57;;;;;;;15.38;11.52;;;;;;;;;;10004340;29;20038;-84
2023/08/14 00:56:00;;;;;;;18.27;12.32;;;;;;;;;;10009402;29;20050;-83
2023/08/14 01:01:01;;;;;;;16.38;12.30;;;;;;;;;;10010245;29;20049;-83
2023/08/14 01:06:02;;;;;;;14.85;12.93;;;;;;;;;;9998866;29;20093;-83
2023/08/14 01:11:24;;;;;;;17.58;12.32;;;;;;;;;;10014050;29;20042;-82
2023/08/14 01:16:28;;;;;;;15.82;13.35;;;;;;;;;;10005836;29;20110;-82
2023/08/14 01:21:35;;;;;;;16.55;11.60;;;;;;;;;;9999129;29;20041;-84
2023/08/14 01:26:36;;;;;;;17.73;12.90;;;;;;;;;;10010676;29;20431;-83
2023/08/14 01:31:37;;;;;;;14.27;11.57;;;;;;;;;;9998230;29;20050;-83
2023/08/14 01:36:58;;;;;;;13.00;9.73;;;;;;;;;;10011759;29;20783;-82
2023/08/14 01:42:13;;;;;;;13.95;10.25;;;;;;;;;;9993312;29;20456;-83
2023/08/14 01:47:18;;;;;;;16.08;10.20;;;;;;;;;;10009984;29;20060;-83
2023/08/14 01:52:19;;;;;;;14.18;10.35;;;;;;;;;;10010474;29;20486;-83
2023/08/14 01:57:20;;;;;;;13.27;9.82;;;;;;;;;;10009071;29;20054;-80
2023/08/14 02:02:21;;;;;;;14.38;10.23;;;;;;;;;;10006087;29;20042;-81
2023/08/14 02:07:22;;;;;;;13.18;11.05;;;;;;;;;;10004084;29;20061;-80
2023/08/14 02:12:23;;;;;;;14.23;10.48;;;;;;;;;;9994400;29;20042;-80
2023/08/14 02:17:27;;;;;;;13.60;9.82;;;;;;;;;;10012778;29;20058;-80
2023/08/14 02:22:28;;;;;;;15.68;11.52;;;;;;;;;;10009078;29;20046;-82
2023/08/14 02:27:29;;;;;;;14.82;11.82;;;;;;;;;;9999604;29;20058;-83
2023/08/14 02:32:30;;;;;;;14.13;11.90;;;;;;;;;;9996753;29;20111;-83
2023/08/14 02:37:31;;;;;;;12.80;11.40;;;;;;;;;;9997008;29;20494;-83
2023/08/14 02:42:32;;;;;;;13.75;11.10;;;;;;;;;;10009202;29;20092;-83
2023/08/14 02:47:33;;;;;;;14.65;11.80;;;;;;;;;;9993543;29;20489;-82
2023/08/14 02:52:35;;;;;;;15.23;12.00;;;;;;;;;;9990789;29;20124;-82
2023/08/14 02:57:36;;;;;;;16.52;11.98;;;;;;;;;;9995349;29;20061;-84
2023/08/14 03:02:37;;;;;;;14.88;11.38;;;;;;;;;;9985201;29;20058;-85
2023/08/14 03:07:38;;;;;;;13.60;10.95;;;;;;;;;;9996040;29;20141;-84
2023/08/14 03:12:39;;;;;;;15.20;10.65;;;;;;;;;;9989132;29;20098;-83
2023/08/14 03:17:40;;;;;;;14.63;11.60;;;;;;;;;;9996365;29;20098;-84
2023/08/14 03:22:41;;;;;;;14.82;11.60;;;;;;;;;;9991256;29;20380;-84
2023/08/14 03:27:42;;;;;;;14.38;11.20;;;;;;;;;;9995800;29;20111;-83
2023/08/14 03:32:43;;;;;;;14.07;11.95;;;;;;;;;;9983912;29;20055;-84
2023/08/14 03:37:44;;;;;;;14.60;11.52;;;;;;;;;;10005690;29;20044;-84
2023/08/14 03:42:45;;;;;;;18.65;13.32;;;;;;;;;;9984504;29;20141;-83
2023/08/14 03:47:46;;;;;;;15.13;12.13;;;;;;;;;;9986108;29;20060;-83
2023/08/14 03:52:48;;;;;;;14.10;11.48;;;;;;;;;;9979848;29;20053;-84
2023/08/14 03:57:49;;;;;;;14.10;11.63;;;;;;;;;;9994049;29;20695;-83
2023/08/14 04:02:50;;;;;;;15.20;12.50;;;;;;;;;;9986213;29;20054;-83
2023/08/14 04:07:51;;;;;;;18.88;14.60;;;;;;;;;;10002304;29;20133;-83
2023/08/14 04:12:52;;;;;;;18.63;14.85;;;;;;;;;;9978064;29;20049;-84
2023/08/14 04:17:53;;;;;;;19.17;13.93;;;;;;;;;;9984725;29;20495;-84
2023/08/14 04:22:54;;;;;;;19.67;15.27;;;;;;;;;;9989474;29;20051;-83
2023/08/14 04:27:55;;;;;;;20.00;16.83;;;;;;;;;;9991330;29;20066;-83
2023/08/14 04:32:56;;;;;;;20.15;16.38;;;;;;;;;;10010916;29;20058;-83
2023/08/14 04:37:57;;;;;;;16.55;14.43;;;;;;;;;;9992489;29;20042;-84
2023/08/14 04:42:59;;;;;;;17.73;14.82;;;;;;;;;;9996543;29;20049;-83
2023/08/14 04:48:00;;;;;;;16.23;13.63;;;;;;;;;;9994146;29;20136;-85
2023/08/14 04:53:01;;;;;;;16.90;14.75;;;;;;;;;;9995717;29;20099;-85
2023/08/14 04:58:02;;;;;;;17.42;14.50;;;;;;;;;;9987187;29;20485;-84
2023/08/14 05:03:03;;;;;;;17.63;15.57;;;;;;;;;;9987034;29;20117;-83
2023/08/14 05:08:04;;;;;;;17.10;14.90;;;;;;;;;;9992838;29;20377;-83
2023/08/14 05:13:05;;;;;;;21.42;16.27;;;;;;;;;;9997609;29;20050;-82
2023/08/14 05:18:06;;;;;;;19.30;15.90;;;;;;;;;;10003333;29;20045;-82
2023/08/14 05:23:07;;;;;;;19.48;14.75;;;;;;;;;;9989130;29;20042;-83
2023/08/14 05:28:08;;;;;;;16.17;12.50;;;;;;;;;;9996877;29;20511;-83
2023/08/14 05:33:09;;;;;;;18.27;13.73;;;;;;;;;;9994717;29;20049;-83
2023/08/14 05:38:10;;;;;;;15.63;11.98;;;;;;;;;;9980242;29;20041;-82
2023/08/14 05:43:12;;;;;;;14.35;11.48;;;;;;;;;;10004980;29;20497;-83
2023/08/14 05:48:14;;;;;;;16.92;12.10;;;;;;;;;;9999898;29;20057;-81
2023/08/14 05:53:15;;;;;;;12.15;10.85;;;;;;;;;;9991650;29;20051;-87
2023/08/14 05:58:16;;;;;;;14.52;11.55;;;;;;;;;;9992538;29;20410;-88
2023/08/14 06:03:17;;;;;;;13.63;10.85;;;;;;;;;;10003710;29;20038;-86
2023/08/14 06:08:18;;;;;;;14.35;11.52;;;;;;;;;;9995368;29;20508;-88
2023/08/14 06:13:19;;;;;;;14.65;11.57;;;;;;;;;;9987424;29;20042;-87
2023/08/14 06:18:20;;;;;;;14.00;9.63;;;;;;;;;;9984567;29;20046;-88
2023/08/14 06:23:22;;;;;;;14.65;9.43;;;;;;;;;;9986132;29;20053;-88
2023/08/14 06:28:23;;;;;;;10.98;7.88;;;;;;;;;;9985614;29;20061;-84
2023/08/14 06:33:24;;;;;;;7.60;5.85;;;;;;;;;;9993033;29;20087;-86
2023/08/14 06:38:25;;;;;;;9.70;6.90;;;;;;;;;;9998401;29;20050;-86
2023/08/14 06:43:27;;;;;;;8.60;6.10;;;;;;;;;;9981276;29;20474;-87
2023/08/14 06:48:32;;;;;;;10.13;6.80;;;;;;;;;;9985478;29;20057;-86
2023/08/14 06:53:33;;;;;;;7.15;5.55;;;;;;;;;;9988789;29;20054;-85
2023/08/14 06:58:35;;;;;;;6.35;5.32;;;;;;;;;;9995907;29;20044;-86
2023/08/14 07:03:36;;;;;;;8.98;4.93;;;;;;;;;;9983349;29;20050;-84
2023/08/14 07:08:37;;;;;;;7.95;5.25;;;;;;;;;;9976602;29;20050;-84
2023/08/14 07:13:38;;;;;;;5.57;4.80;;;;;;;;;;9981106;29;20481;-85
2023/08/14 07:18:39;;;;;;;7.60;4.70;;;;;;;;;;10002970;29;20045;-83
2023/08/14 07:23:40;;;;;;;6.45;4.72;;;;;;;;;;9993294;29;20050;-84
2023/08/14 07:28:41;;;;;;;10.23;5.40;;;;;;;;;;9987647;29;20142;-84
2023/08/14 07:33:42;;;;;;;7.85;4.82;;;;;;;;;;9992257;29;20049;-82
2023/08/14 07:38:43;;;;;;;6.43;4.53;;;;;;;;;;10000568;29;20042;-82
2023/08/14 07:43:44;;;;;;;7.05;4.40;;;;;;;;;;9996609;29;20041;-83
2023/08/14 07:48:45;;;;;;;7.05;4.35;;;;;;;;;;10000950;29;20085;-84
2023/08/14 07:53:46;;;;;;;7.15;5.05;;;;;;;;;;10005577;29;20045;-85
2023/08/14 07:58:47;;;;;;;5.47;4.53;;;;;;;;;;9994435;29;20605;-87
2023/08/14 08:03:48;;;;;;;5.07;4.57;;;;;;;;;;9994296;29;20038;-89
2023/08/14 08:08:50;;;;;;;5.45;3.88;;;;;;;;;;9991175;29;20054;-88
2023/08/14 08:13:51;;;;;;;3.95;3.08;;;;;;;;;;9988673;29;20049;-84
2023/08/14 08:18:52;;;;;;;3.55;2.80;;;;;;;;;;9982239;29;20492;-88
2023/08/14 08:23:53;;;;;;;2.92;2.50;;;;;;;;;;9990245;29;20424;-86
2023/08/14 08:28:54;;;;;;;4.82;3.22;;;;;;;;;;9998446;29;20077;-84
2023/08/14 08:33:55;;;;;;;3.35;3.05;;;;;;;;;;9997077;29;20053;-85
2023/08/14 08:38:56;;;;;;;4.35;3.50;;;;;;;;;;10007949;29;20455;-86
2023/08/14 08:44:07;;;;;;;3.80;3.17;;;;;;;;;;10007382;29;20041;-85
2023/08/14 08:49:08;;;;;;;6.43;3.97;;;;;;;;;;9995284;29;20716;-85
2023/08/14 08:54:09;;;;;;;5.97;3.67;;;;;;;;;;9993431;29;20053;-87
2023/08/14 08:59:11;;;;;;;5.05;3.10;;;;;;;;;;9992390;29;20128;-86
2023/08/14 09:04:12;;;;;;;3.63;3.25;;;;;;;;;;10003562;29;20057;-86
2023/08/14 09:09:14;;;;;;;3.72;3.00;;;;;;;;;;9997742;29;20062;-85
2023/08/14 09:14:17;;;;;;;8.70;3.20;;;;;;;;;;10005751;29;20069;-85
2023/08/14 09:19:18;;;;;;;3.93;3.10;;;;;;;;;;10010546;29;20050;-86
2023/08/14 09:24:19;;;;;;;4.28;3.00;;;;;;;;;;10009282;29;20129;-86
2023/08/14 09:29:20;;;;;;;3.67;3.38;;;;;;;;;;9999532;29;20531;-86
2023/08/14 09:34:21;;;;;;;3.78;3.28;;;;;;;;;;10007786;29;20131;-86
2023/08/14 09:39:23;;;;;;;3.25;2.53;;;;;;;;;;10009891;29;20156;-85
2023/08/14 09:44:24;;;;;;;4.72;2.80;;;;;;;;;;10009226;29;20050;-87
2023/08/14 09:49:27;;;;;;;4.68;3.13;;;;;;;;;;10010519;29;20441;-86
2023/08/14 09:54:33;;;;;;;5.50;3.08;;;;;;;;;;10011448;29;20081;-86
2023/08/14 09:59:35;;;;;;;2.67;2.47;;;;;;;;;;10003398;29;20045;-85
2023/08/14 10:04:36;;;;;;;3.15;2.85;;;;;;;;;;10016463;29;20452;-85
2023/08/14 10:09:38;;;;;;;4.22;3.15;;;;;;;;;;10001592;29;20430;-86
2023/08/14 10:14:41;;;;;;;6.32;3.72;;;;;;;;;;9996300;29;20054;-86
2023/08/14 10:19:43;;;;;;;5.00;3.58;;;;;;;;;;10016098;29;20046;-85
2023/08/14 10:24:44;;;;;;;3.85;2.80;;;;;;;;;;10009123;29;20050;-86
2023/08/14 10:29:46;;;;;;;6.78;3.28;;;;;;;;;;9992415;29;20054;-85
2023/08/14 10:34:49;;;;;;;5.30;2.90;;;;;;;;;;10000384;29;20415;-85
2023/08/14 10:39:50;;;;;;;4.93;3.30;;;;;;;;;;10002396;29;20107;-84
2023/08/14 10:44:51;;;;;;;3.22;2.92;;;;;;;;;;10009421;29;20099;-85
2023/08/14 10:49:52;;;;;;;4.95;3.03;;;;;;;;;;10007799;29;20049;-86
2023/08/14 10:54:53;;;;;;;6.55;3.67;;;;;;;;;;10002436;29;20502;-86
2023/08/14 10:59:55;;;;;;;4.97;3.40;;;;;;;;;;10008039;29;20057;-87
2023/08/14 11:05:22;;;;;;;7.10;3.35;;;;;;;;;;10006272;29;20111;-85
2023/08/14 11:10:25;;;;;;;4.18;3.30;;;;;;;;;;9988893;29;20049;-84
2023/08/14 11:15:26;;;;;;;3.75;3.25;;;;;;;;;;9987098;29;20503;-85
2023/08/14 11:20:27;;;;;;;4.45;3.33;;;;;;;;;;9991779;29;20042;-87
2023/08/14 11:25:28;;;;;;;4.55;3.28;;;;;;;;;;9986481;29;20047;-85
2023/08/14 11:30:34;;;;;;;5.15;3.67;;;;;;;;;;9989187;29;20141;-84
2023/08/14 11:35:35;;;;;;;3.33;3.03;;;;;;;;;;9993556;29;20744;-86
2023/08/14 11:40:41;;;;;;;5.22;3.22;;;;;;;;;;10000969;29;20562;-87
2023/08/14 11:45:42;;;;;;;4.95;3.30;;;;;;;;;;9997093;29;20038;-85
2023/08/14 11:50:47;;;;;;;5.70;2.90;;;;;;;;;;10008278;29;20128;-84
2023/08/14 11:55:48;;;;;;;5.03;3.00;;;;;;;;;;10011072;29;20062;-84
2023/08/14 12:00:50;;;;;;;3.58;3.13;;;;;;;;;;10004614;29;20046;-84
2023/08/14 12:06:00;;;;;;;3.55;2.75;;;;;;;;;;9986883;29;20058;-85
2023/08/14 12:11:01;;;;;;;4.00;2.78;;;;;;;;;;9990769;29;20048;-85
2023/08/14 12:16:06;;;;;;;3.22;2.92;;;;;;;;;;10007438;29;20045;-85
2023/08/14 12:21:11;;;;;;;4.78;2.78;;;;;;;;;;10007117;29;20081;-86
2023/08/14 12:26:12;;;;;;;7.18;2.83;;;;;;;;;;10000969;29;20042;-84
2023/08/14 12:31:14;;;;;;;4.38;2.50;;;;;;;;;;10007089;29;20046;-85
2023/08/14 12:36:15;;;;;;;3.60;3.25;;;;;;;;;;10004419;29;20045;-87
2023/08/14 12:41:16;;;;;;;4.22;2.75;;;;;;;;;;10005454;29;20054;-85
2023/08/14 12:46:17;;;;;;;4.13;3.35;;;;;;;;;;10001818;29;20721;-87
2023/08/14 12:51:18;;;;;;;3.45;2.80;;;;;;;;;;10012212;29;20050;-85
2023/08/14 12:56:19;;;;;;;3.45;2.65;;;;;;;;;;10014247;29;20462;-85
2023/08/14 13:01:20;;;;;;;3.22;2.80;;;;;;;;;;10012733;29;20046;-85
2023/08/14 13:06:21;;;;;;;3.97;2.95;;;;;;;;;;9999622;29;20052;-84
2023/08/14 13:11:22;;;;;;;5.18;3.63;;;;;;;;;;10013312;29;20085;-84
2023/08/14 13:16:25;;;;;;;6.38;3.40;;;;;;;;;;10004415;29;20130;-86
2023/08/14 13:21:26;;;;;;;4.82;2.83;;;;;;;;;;9996149;29;20052;-86
2023/08/14 13:26:28;;;;;;;4.38;3.25;;;;;;;;;;10017722;29;20042;-85
2023/08/14 13:31:29;;;;;;;5.68;3.13;;;;;;;;;;10011919;29;20042;-85
2023/08/14 13:36:30;;;;;;;4.40;3.20;;;;;;;;;;10013590;29;20629;-86
2023/08/14 13:41:31;;;;;;;3.72;2.90;;;;;;;;;;10016921;29;20111;-86
2023/08/14 13:46:32;;;;;;;3.90;3.22;;;;;;;;;;10012929;29;20061;-85
2023/08/14 13:51:33;;;;;;;5.88;3.42;;;;;;;;;;10012834;29;20303;-86
2023/08/14 13:56:35;;;;;;;5.68;2.75;;;;;;;;;;10008694;29;20065;-85
2023/08/14 14:01:36;;;;;;;4.35;3.05;;;;;;;;;;10012599;29;20759;-86
2023/08/14 14:06:37;;;;;;;3.40;3.08;;;;;;;;;;10023163;29;20049;-86
2023/08/14 14:11:38;;;;;;;5.00;2.70;;;;;;;;;;10011691;29;20044;-86
2023/08/14 14:16:51;;;;;;;3.40;3.03;;;;;;;;;;10012479;29;20064;-85
2023/08/14 14:21:53;;;;;;;4.82;2.95;;;;;;;;;;9994971;29;20046;-88
2023/08/14 14:26:54;;;;;;;4.68;2.97;;;;;;;;;;10002714;29;20045;-86
2023/08/14 14:31:55;;;;;;;5.65;3.00;;;;;;;;;;10010351;29;20050;-85
2023/08/14 14:36:56;;;;;;;4.80;2.97;;;;;;;;;;9989428;29;20069;-84
2023/08/14 14:41:57;;;;;;;5.05;3.00;;;;;;;;;;9983004;29;20042;-86
2023/08/14 14:46:58;;;;;;;4.30;3.00;;;;;;;;;;9990512;29;20061;-83
2023/08/14 14:52:02;;;;;;;5.10;3.55;;;;;;;;;;10005513;29;20444;-84
2023/08/14 14:57:03;;;;;;;3.53;3.08;;;;;;;;;;9997681;29;20115;-83
2023/08/14 15:02:04;;;;;;;5.15;2.97;;;;;;;;;;10005510;29;20511;-83
2023/08/14 15:07:05;;;;;;;4.72;2.85;;;;;;;;;;10006176;29;20724;-84
2023/08/14 15:12:06;;;;;;;4.03;2.95;;;;;;;;;;9996897;29;20053;-84
2023/08/14 15:17:07;;;;;;;3.05;2.53;;;;;;;;;;10005305;29;20045;-83
2023/08/14 15:22:08;;;;;;;4.45;3.20;;;;;;;;;;9986969;29;20046;-84
2023/08/14 15:27:09;;;;;;;5.88;3.03;;;;;;;;;;10003839;29;20056;-84
2023/08/14 15:32:10;;;;;;;2.92;2.63;;;;;;;;;;9993969;29;20443;-83
2023/08/14 15:37:11;;;;;;;3.70;3.38;;;;;;;;;;10007658;29;20737;-84
2023/08/14 15:42:12;;;;;;;5.00;2.95;;;;;;;;;;9993325;29;20041;-83
2023/08/14 15:47:14;;;;;;;6.93;3.08;;;;;;;;;;10006918;29;20049;-82
2023/08/14 15:52:15;;;;;;;3.67;2.67;;;;;;;;;;10003652;29;20926;-83
2023/08/14 15:57:16;;;;;;;5.88;3.03;;;;;;;;;;10004321;29;20118;-83
2023/08/14 16:02:19;;;;;;;4.10;2.67;;;;;;;;;;10008898;29;20114;-83
2023/08/14 16:07:21;;;;;;;4.00;2.85;;;;;;;;;;9985080;29;20054;-84
2023/08/14 16:12:22;;;;;;;2.85;2.53;;;;;;;;;;9995190;29;20123;-86
2023/08/14 16:17:23;;;;;;;3.78;2.78;;;;;;;;;;10000227;29;20049;-84
2023/08/14 16:22:24;;;;;;;4.70;3.08;;;;;;;;;;9994881;29;20095;-83
2023/08/14 16:27:25;;;;;;;4.30;3.15;;;;;;;;;;9985756;29;20066;-86
2023/08/14 16:32:26;;;;;;;7.28;3.28;;;;;;;;;;9997098;29;20794;-86
2023/08/14 16:37:27;;;;;;;4.40;2.92;;;;;;;;;;10009736;29;20046;-84
2023/08/14 16:42:28;;;;;;;3.33;2.63;;;;;;;;;;10006069;29;20117;-82
2023/08/14 16:47:29;;;;;;;7.57;3.42;;;;;;;;;;10014966;29;20101;-84
2023/08/14 16:52:31;;;;;;;5.78;3.72;;;;;;;;;;10002932;29;20053;-84
2023/08/14 16:57:32;;;;;;;5.80;3.28;;;;;;;;;;9998432;29;20046;-84
2023/08/14 17:02:33;;;;;;;3.90;3.47;;;;;;;;;;10002736;29;20048;-83
2023/08/14 17:07:34;;;;;;;5.85;3.97;;;;;;;;;;10004034;29;20060;-84
2023/08/14 17:12:35;;;;;;;5.28;3.70;;;;;;;;;;10006982;29;20046;-86
2023/08/14 17:17:36;;;;;;;5.63;3.85;;;;;;;;;;10002225;29;20399;-84
2023/08/14 17:22:38;;;;;;;32.58;21.42;;;;;;;;;;10013704;29;20045;-83
2023/08/14 17:27:39;;;;;;;44.65;30.17;;;;;;;;;;9995974;29;20116;-83
2023/08/14 17:32:40;;;;;;;54.40;38.55;;;;;;;;;;10012519;29;20749;-85
2023/08/14 17:37:41;;;;;;;35.45;24.05;;;;;;;;;;10000738;29;20042;-83
2023/08/14 17:42:42;;;;;;;23.08;16.48;;;;;;;;;;10014068;29;20911;-83
2023/08/14 17:47:43;;;;;;;15.60;12.15;;;;;;;;;;9989354;29;20137;-83
2023/08/14 17:52:44;;;;;;;9.63;8.35;;;;;;;;;;10009807;29;20491;-84
2023/08/14 17:57:45;;;;;;;25.00;19.92;;;;;;;;;;10021380;29;20374;-84
2023/08/14 18:02:46;;;;;;;14.88;9.85;;;;;;;;;;10005081;29;20081;-84
2023/08/14 18:07:47;;;;;;;10.23;7.07;;;;;;;;;;9989659;29;20046;-84
2023/08/14 18:12:48;;;;;;;9.10;5.80;;;;;;;;;;9989934;29;20057;-85
2023/08/14 18:17:49;;;;;;;7.95;5.10;;;;;;;;;;10008201;29;20048;-85
2023/08/14 18:22:50;;;;;;;8.30;5.30;;;;;;;;;;10006921;29;20460;-85
2023/08/14 18:27:52;;;;;;;11.50;5.93;;;;;;;;;;10004633;29;20052;-84
2023/08/14 18:32:53;;;;;;;8.35;5.72;;;;;;;;;;10009690;29;20030;-84
2023/08/14 18:37:56;;;;;;;11.30;6.30;;;;;;;;;;9999856;29;20054;-83
2023/08/14 18:43:06;;;;;;;11.13;7.00;;;;;;;;;;10003670;29;20043;-84
2023/08/14 18:48:08;;;;;;;8.32;6.07;;;;;;;;;;9998653;29;20053;-83
2023/08/14 18:53:09;;;;;;;6.63;5.68;;;;;;;;;;9993800;29;20177;-83
2023/08/14 18:58:10;;;;;;;8.93;6.13;;;;;;;;;;9998482;29;20049;-83
2023/08/14 19:03:11;;;;;;;9.45;6.60;;;;;;;;;;10000267;29;20081;-83
2023/08/14 19:08:12;;;;;;;11.43;5.88;;;;;;;;;;10005258;29;20045;-83
2023/08/14 19:13:13;;;;;;;10.73;6.43;;;;;;;;;;10003185;29;20052;-83
2023/08/14 19:18:14;;;;;;;12.35;6.55;;;;;;;;;;10009728;29;20049;-83
2023/08/14 19:23:15;;;;;;;9.05;6.90;;;;;;;;;;10012557;29;20422;-83
2023/08/14 19:28:16;;;;;;;10.52;7.28;;;;;;;;;;9992812;29;20064;-83
2023/08/14 19:33:17;;;;;;;9.63;7.00;;;;;;;;;;10010653;29;20737;-83
2023/08/14 19:38:18;;;;;;;10.80;6.70;;;;;;;;;;9992977;29;20117;-82
2023/08/14 19:43:20;;;;;;;10.10;7.40;;;;;;;;;;10006524;29;20034;-82
2023/08/14 19:48:21;;;;;;;11.63;7.55;;;;;;;;;;9990012;29;20118;-82
2023/08/14 19:53:22;;;;;;;12.20;8.32;;;;;;;;;;9994628;29;20038;-82
2023/08/14 19:58:23;;;;;;;12.70;8.40;;;;;;;;;;9986070;29;20042;-84
2023/08/14 20:03:25;;;;;;;16.63;9.23;;;;;;;;;;9997010;29;20038;-83
2023/08/14 20:08:25;;;;;;;9.60;7.40;;;;;;;;;;9990626;29;20048;-83
2023/08/14 20:13:27;;;;;;;11.38;8.02;;;;;;;;;;9988801;29;20407;-83
2023/08/14 20:18:29;;;;;;;12.27;8.90;;;;;;;;;;9993353;29;20050;-83
2023/08/14 20:23:34;;;;;;;13.35;8.32;;;;;;;;;;9992600;29;20045;-83
2023/08/14 20:28:36;;;;;;;12.60;8.25;;;;;;;;;;10003723;29;20056;-83
2023/08/14 20:33:37;;;;;;;13.65;8.93;;;;;;;;;;9996210;29;20030;-81
2023/08/14 20:38:38;;;;;;;10.23;7.75;;;;;;;;;;10000209;29;20073;-82
2023/08/14 20:43:39;;;;;;;9.90;8.10;;;;;;;;;;10008418;29;20041;-82
2023/08/14 20:48:40;;;;;;;11.07;9.10;;;;;;;;;;9994942;29;20042;-82
2023/08/14 20:53:41;;;;;;;10.13;8.38;;;;;;;;;;10001586;29;20612;-82
2023/08/14 20:58:42;;;;;;;12.30;8.68;;;;;;;;;;9998820;29;20030;-81
2023/08/14 21:03:44;;;;;;;11.40;8.75;;;;;;;;;;9998267;29;20053;-82
2023/08/14 21:08:45;;;;;;;10.70;8.23;;;;;;;;;;10008426;29;20510;-82
2023/08/14 21:13:46;;;;;;;12.05;8.85;;;;;;;;;;10011964;29;20077;-81
2023/08/14 21:18:47;;;;;;;13.73;9.20;;;;;;;;;;10010984;29;20050;-82
2023/08/14 21:23:49;;;;;;;11.85;8.48;;;;;;;;;;9999505;29;20518;-81
2023/08/14 21:28:50;;;;;;;11.43;8.98;;;;;;;;;;10012852;29;20042;-82
2023/08/14 21:33:51;;;;;;;11.43;9.50;;;;;;;;;;10002577;29;20061;-81
2023/08/14 21:38:52;;;;;;;14.32;9.05;;;;;;;;;;9999135;29;20042;-81
2023/08/14 21:43:53;;;;;;;12.52;9.82;;;;;;;;;;10012264;29;20468;-82
2023/08/14 21:48:54;;;;;;;12.98;9.77;;;;;;;;;;10010295;29;20057;-82
2023/08/14 21:53:55;;;;;;;14.48;9.82;;;;;;;;;;10000386;29;20507;-82
2023/08/14 21:58:56;;;;;;;12.63;9.95;;;;;;;;;;10007609;29;20703;-81
2023/08/14 22:03:57;;;;;;;15.95;11.07;;;;;;;;;;9993470;29;20055;-82
2023/08/14 22:08:58;;;;;;;15.73;11.02;;;;;;;;;;10003111;29;20140;-82
2023/08/14 22:13:59;;;;;;;16.55;11.65;;;;;;;;;;10010889;29;20042;-81
2023/08/14 22:19:00;;;;;;;14.80;11.60;;;;;;;;;;10005688;29;20050;-81
2023/08/14 22:24:01;;;;;;;16.38;11.63;;;;;;;;;;10010730;29;20053;-82
2023/08/14 22:29:02;;;;;;;14.20;12.00;;;;;;;;;;10010372;29;20414;-82
2023/08/14 22:34:03;;;;;;;16.20;12.43;;;;;;;;;;10008372;29;20053;-81
2023/08/14 22:39:04;;;;;;;18.25;13.13;;;;;;;;;;10011074;29;20517;-82
2023/08/14 22:44:05;;;;;;;16.25;10.95;;;;;;;;;;10005766;29;20045;-81
2023/08/14 22:49:06;;;;;;;13.82;11.10;;;;;;;;;;9995940;29;20052;-82
2023/08/14 22:54:07;;;;;;;15.27;11.38;;;;;;;;;;10017782;24;20628;-82
2023/08/14 22:59:08;;;;;;;14.68;9.70;;;;;;;;;;10008657;29;20094;-82
2023/08/14 23:04:09;;;;;;;17.13;12.23;;;;;;;;;;10009667;29;20178;-82
2023/08/14 23:09:10;;;;;;;18.95;15.35;;;;;;;;;;10010036;29;20050;-82
2023/08/14 23:14:11;;;;;;;23.23;15.48;;;;;;;;;;10010034;29;20102;-82
2023/08/14 23:19:12;;;;;;;23.20;16.45;;;;;;;;;;10008751;29;20042;-82
2023/08/14 23:24:13;;;;;;;21.55;16.63;;;;;;;;;;10020985;24;20062;-82
2023/08/14 23:29:14;;;;;;;20.20;16.40;;;;;;;;;;9992025;29;20077;-82
2023/08/14 23:34:15;;;;;;;22.77;16.45;;;;;;;;;;10005092;29;20046;-82
2023/08/14 23:39:19;;;;;;;23.58;16.52;;;;;;;;;;10007368;29;20048;-82
2023/08/14 23:44:20;;;;;;;21.67;16.65;;;;;;;;;;10008493;29;20512;-83
2023/08/14 23:49:21;;;;;;;23.02;17.38;;;;;;;;;;9996153;29;20057;-82
2023/08/14 23:54:22;;;;;;;21.90;16.60;;;;;;;;;;10013748;24;20065;-82
2023/08/14 23:59:23;;;;;;;21.55;16.40;;;;;;;;;;10007371;29;20049;-83
